»·PEaware :: N335AK KTRM-KFAT

N335AK :: KTRM-KFAT

FLIGHT INFORMATION

Flight Status: Arrived
Operator: Privately registered:
United States
More flights under this callsign
Pilot: Gabor H. (24209)
Aircraft: Unknown
(EPIC)
More flights by this aircraft type
Origin: KTRM Desert Resorts Regl
United States
Destination: KFAT Fresno Yosemite Intl
United States
More flights between these airports :: More routes between these airports
Route: +MECCA1 PSP V386 PMD LANDO TTE ALTTA9
File this flight plan on PilotEdge
Remarks:
Altitude:
(Current/Filed)
22,000ft
Speed:
(Current/Filed)
325kts
Departed: 27-Oct-20 12:49 PM
Arrived: 27-Oct-20 01:57 PM
Distance/Time
Traveled:
257nm/1:08
Distance/Time
To Go:
Arrived

Flight Plot

Page will automatically refresh every two minutes.

Flight plan parsing failed; only flown route is shown


Map Options




Map Legend


Flown Route
Filed Route
Departure Airport
Arrival Airport
Navaid (VOR, NDB)
Fix

Horizontal Profiles

Position Reports

Time Latitude Longitude Heading Altitude Ground
Speed
27-Oct-20 12:37 33.636316 -116.158853 358 -113ft 0kts
27-Oct-20 12:38 33.636316 -116.158853 358 -113ft 0kts
27-Oct-20 12:39 33.636316 -116.158853 358 -113ft 0kts
27-Oct-20 12:40 33.635884 -116.157742 181 -114ft 15kts
27-Oct-20 12:41 33.630960 -116.157701 180 -119ft 17kts
27-Oct-20 12:42 33.626593 -116.157738 176 -123ft 15kts
27-Oct-20 12:43 33.620564 -116.157750 176 -128ft 22kts
27-Oct-20 12:44 33.616210 -116.158053 206 -131ft 0kts
27-Oct-20 12:45 33.616210 -116.158053 206 -131ft 0kts
27-Oct-20 12:46 33.616210 -116.158053 206 -131ft 0kts
27-Oct-20 12:46 33.615914 -116.157570 94 -132ft 8kts
27-Oct-20 12:48 33.615906 -116.157007 85 -132ft 11kts
27-Oct-20 12:48 33.631326 -116.156766 357 125ft 159kts
27-Oct-20 12:50 33.631615 -116.116732 181 3529ft 209kts
27-Oct-20 12:50 33.586722 -116.130214 147 5886ft 219kts
27-Oct-20 12:51 33.534418 -116.091144 119 8722ft 221kts
27-Oct-20 12:52 33.559967 -116.067328 342 11573ft 182kts
27-Oct-20 12:53 33.599737 -116.114523 315 13528ft 231kts
27-Oct-20 12:54 33.639673 -116.172990 325 15661ft 226kts
27-Oct-20 12:55 33.686178 -116.224756 325 17408ft 231kts
27-Oct-20 12:56 33.733804 -116.277757 325 18895ft 236kts
27-Oct-20 12:57 33.782396 -116.331924 325 20177ft 241kts
27-Oct-20 12:58 33.831823 -116.387109 325 21266ft 245kts
27-Oct-20 12:59 33.885037 -116.435475 346 22152ft 237kts
27-Oct-20 13:00 33.951072 -116.461399 347 22171ft 260kts
27-Oct-20 13:01 34.021081 -116.488741 346 22169ft 270kts
27-Oct-20 13:02 34.093426 -116.517059 346 22169ft 277kts
27-Oct-20 13:03 34.167179 -116.545975 346 22196ft 280kts
27-Oct-20 13:04 34.241414 -116.575139 346 22201ft 282kts
27-Oct-20 13:05 34.316039 -116.604507 346 22207ft 282kts
27-Oct-20 13:06 34.390523 -116.633866 346 22219ft 282kts
27-Oct-20 13:07 34.465217 -116.663364 346 22219ft 282kts
27-Oct-20 13:08 34.508677 -116.741536 287 22221ft 327kts
27-Oct-20 13:09 34.519894 -116.851370 285 22218ft 329kts
27-Oct-20 13:10 34.530606 -116.961912 283 22190ft 329kts
27-Oct-20 13:11 34.541063 -117.071541 282 22189ft 326kts
27-Oct-20 13:12 34.551386 -117.180638 281 22195ft 325kts
27-Oct-20 13:13 34.561602 -117.289539 281 22200ft 325kts
27-Oct-20 13:14 34.571742 -117.398700 281 22200ft 325kts
27-Oct-20 13:15 34.581748 -117.507479 281 22200ft 325kts
27-Oct-20 13:16 34.591668 -117.616395 281 22200ft 325kts
27-Oct-20 13:17 34.601527 -117.725735 281 22194ft 325kts
27-Oct-20 13:18 34.611267 -117.834859 281 22188ft 325kts
27-Oct-20 13:19 34.620912 -117.944041 281 22188ft 326kts
27-Oct-20 13:20 34.631636 -118.053053 295 22172ft 319kts
27-Oct-20 13:21 34.682343 -118.137133 314 22192ft 309kts
27-Oct-20 13:22 34.737681 -118.217111 314 22194ft 309kts
27-Oct-20 13:23 34.787815 -118.289636 314 22196ft 309kts
27-Oct-20 13:24 34.842968 -118.369590 314 22200ft 308kts
27-Oct-20 13:25 34.898096 -118.449690 314 22207ft 308kts
27-Oct-20 13:26 34.953029 -118.529693 314 22214ft 308kts
27-Oct-20 13:27 35.008591 -118.609365 325 22198ft 305kts
27-Oct-20 13:28 35.085444 -118.648779 341 22209ft 301kts
27-Oct-20 13:29 35.164375 -118.683959 341 22193ft 302kts
27-Oct-20 13:30 35.243410 -118.719208 341 22168ft 303kts
27-Oct-20 13:31 35.322303 -118.754467 341 22155ft 303kts
27-Oct-20 13:32 35.401500 -118.789934 341 22143ft 303kts
27-Oct-20 13:33 35.480894 -118.825557 341 21712ft 315kts
27-Oct-20 13:34 35.564663 -118.863234 341 20845ft 325kts
27-Oct-20 13:35 35.650080 -118.901736 341 19874ft 330kts
27-Oct-20 13:36 35.736290 -118.940686 341 18857ft 333kts
27-Oct-20 13:37 35.823262 -118.980070 341 17824ft 333kts
27-Oct-20 13:38 35.910208 -119.019538 341 16544ft 338kts
27-Oct-20 13:39 35.995949 -119.060187 341 14921ft 325kts
27-Oct-20 13:40 36.079243 -119.099829 341 13305ft 318kts
27-Oct-20 13:41 36.160812 -119.138756 341 11933ft 306kts
27-Oct-20 13:42 36.238217 -119.175739 340 10549ft 286kts
27-Oct-20 13:43 36.308899 -119.209594 339 9038ft 263kts
27-Oct-20 13:44 36.376040 -119.241817 338 7542ft 261kts
27-Oct-20 13:45 36.443813 -119.274412 337 6041ft 264kts
27-Oct-20 13:46 36.511750 -119.307145 337 4860ft 254kts
27-Oct-20 13:47 36.567346 -119.353277 305 4821ft 243kts
27-Oct-20 13:48 36.605006 -119.419690 305 4070ft 218kts
27-Oct-20 13:49 36.638016 -119.478194 305 3254ft 198kts
27-Oct-20 13:50 36.669792 -119.531590 305 2624ft 182kts
27-Oct-20 13:51 36.697003 -119.582024 305 1888ft 162kts
27-Oct-20 13:52 36.723125 -119.627585 305 1822ft 155kts
27-Oct-20 13:53 36.744584 -119.665138 304 1221ft 118kts
27-Oct-20 13:54 36.761256 -119.694266 304 683ft 97kts
27-Oct-20 13:55 36.775001 -119.718426 305 337ft 60kts
27-Oct-20 13:56 36.775930 -119.723013 215 336ft 12kts
27-Oct-20 13:57 36.775542 -119.724971 311 336ft 0kts
27-Oct-20 13:58 36.775542 -119.724971 311 336ft 0kts
27-Oct-20 13:59 36.775542 -119.724971 311 336ft 0kts
27-Oct-20 14:00 36.775542 -119.724971 311 336ft 0kts
27-Oct-20 14:01 36.775542 -119.724971 311 336ft 0kts
27-Oct-20 14:02 36.775542 -119.724971 311 336ft 0kts
27-Oct-20 14:03 36.775542 -119.724971 311 336ft 0kts
27-Oct-20 14:04 36.775542 -119.724971 311 336ft 0kts
27-Oct-20 14:05 36.775542 -119.724971 311 336ft 0kts
27-Oct-20 14:06 36.775542 -119.724971 311 336ft 0kts
27-Oct-20 14:07 36.775542 -119.724971 311 336ft 0kts
27-Oct-20 14:08 36.775542 -119.724971 311 336ft 0kts
27-Oct-20 14:09 36.775542 -119.724971 311 336ft 0kts

Navigation Log

Ident Type
Flight plan parsing failed, navigation log unavailable